Time;durP1;ratioP1;P1;durP2;ratioP2;P2;SDS_P1;SDS_P2;PMS_P1;PMS_P2;Temp;Humidity;BMP_temperature;BMP_pressure;BME280_temperature;BME280_humidity;BME280_pressure;Samples;Min_cycle;Max_cycle;Signal;HPM_P1;HPM_P2
2021/03/10 00:05:23;;;;;;;73.78;44.40;;;;;;;5.93;68.71;93462.88;4939523;28;20141;-86
2021/03/10 00:07:55;;;;;;;76.53;44.78;;;;;;;5.82;69.18;93432.44;4931378;28;20050;-86
2021/03/10 00:10:26;;;;;;;70.78;46.80;;;;;;;5.83;69.96;93434.03;4888053;28;20205;-86
2021/03/10 00:13:06;;;;;;;76.47;48.53;;;;;;;5.94;70.41;93446.88;4930580;28;20433;-86
2021/03/10 00:15:37;;;;;;;73.10;43.63;;;;;;;6.14;69.13;93474.88;4828901;28;20133;-86
2021/03/10 00:18:46;;;;;;;75.80;46.78;;;;;;;6.23;69.42;93493.47;4861210;28;20051;-86
2021/03/10 00:21:12;;;;;;;61.47;36.75;;;;;;;6.00;67.96;93452.88;4850166;29;21303;-86
2021/03/10 00:23:37;;;;;;;64.50;41.20;;;;;;;6.09;68.65;93474.88;4940795;28;20057;-86
2021/03/10 00:26:20;;;;;;;63.30;44.45;;;;;;;6.06;69.50;93465.69;4902375;28;20048;-86
2021/03/10 00:29:14;;;;;;;65.57;41.28;;;;;;;5.76;68.99;93415.19;4913522;28;20023;-85
2021/03/10 00:31:41;;;;;;;55.28;34.70;;;;;;;5.47;69.25;93401.91;4939616;28;20166;-87
2021/03/10 00:34:20;;;;;;;49.38;33.92;;;;;;;5.36;69.81;93388.03;4918264;28;20599;-91
2021/03/10 00:36:58;;;;;;;48.38;30.85;;;;;;;5.56;70.47;93418.66;4914442;28;20039;-88
2021/03/10 00:40:02;;;;;;;53.03;34.55;;;;;;;5.24;70.92;93392.78;4922594;28;20747;-88
2021/03/10 00:42:27;;;;;;;50.25;35.40;;;;;;;5.39;71.38;93416.31;4910577;28;20071;-88
2021/03/10 00:45:20;;;;;;;56.20;35.38;;;;;;;5.08;72.91;93412.19;4866253;28;20248;-92
2021/03/10 00:48:01;;;;;;;57.30;35.45;;;;;;;5.05;72.54;93381.28;4868009;29;20056;-86
2021/03/10 00:50:41;;;;;;;57.97;35.67;;;;;;;4.96;72.64;93380.25;4858424;29;20080;-90
2021/03/10 00:53:23;;;;;;;68.22;35.53;;;;;;;5.08;71.62;93383.38;4883424;28;20807;-94
2021/03/10 00:56:24;;;;;;;60.53;36.97;;;;;;;5.18;72.63;93401.72;4867235;28;20039;-87
2021/03/10 00:58:59;;;;;;;55.92;36.58;;;;;;;5.30;72.98;93417.13;4784768;29;20045;-88
2021/03/10 01:01:30;;;;;;;62.78;39.55;;;;;;;5.57;72.70;93434.09;4884129;28;20505;-88
2021/03/10 01:03:58;;;;;;;59.10;38.28;;;;;;;5.10;73.16;93376.03;4892505;28;20040;-87
2021/03/10 01:09:35;;;;;;;65.32;39.72;;;;;;;5.46;73.04;93427.31;4869428;28;20079;-93
2021/03/10 01:12:23;;;;;;;66.93;41.15;;;;;;;5.28;73.21;93393.81;4910161;28;20046;-90
2021/03/10 01:14:57;;;;;;;62.20;40.92;;;;;;;5.39;74.69;93421.56;4926043;28;20102;-89
2021/03/10 01:17:26;;;;;;;71.07;42.95;;;;;;;5.33;75.03;93421.81;4859303;28;20050;-89
2021/03/10 01:20:30;;;;;;;66.68;42.90;;;;;;;5.43;75.61;93412.13;4883867;29;20052;-88
2021/03/10 01:23:01;;;;;;;81.70;47.10;;;;;;;5.04;76.83;93335.97;4892167;28;20190;-86
2021/03/10 01:25:33;;;;;;;79.72;46.00;;;;;;;4.93;75.97;93338.88;4940013;28;20033;-91
2021/03/10 01:28:08;;;;;;;75.90;43.72;;;;;;;5.52;75.35;93410.50;4942633;28;20035;-89
2021/03/10 01:30:39;;;;;;;67.18;42.75;;;;;;;5.56;75.03;93400.31;4922726;28;20043;-87
2021/03/10 01:33:28;;;;;;;70.45;42.55;;;;;;;5.04;75.33;93346.44;4905778;28;20454;-87
2021/03/10 01:36:02;;;;;;;68.93;43.13;;;;;;;5.12;75.30;93360.84;4901994;28;20138;-86
2021/03/10 01:38:28;;;;;;;71.65;43.00;;;;;;;5.07;75.73;93347.78;4932633;28;20046;-86
2021/03/10 01:40:53;;;;;;;66.88;43.30;;;;;;;5.32;76.08;93373.91;4930784;28;20571;-87
2021/03/10 01:43:22;;;;;;;72.50;44.03;;;;;;;5.01;76.43;93341.75;4921057;28;20042;-87
2021/03/10 01:45:57;;;;;;;67.68;41.67;;;;;;;5.17;76.37;93334.66;4912771;28;20049;-86
2021/03/10 01:48:27;;;;;;;68.30;42.22;;;;;;;5.40;75.78;93362.88;4899416;28;20458;-86
2021/03/10 01:50:56;;;;;;;67.13;42.38;;;;;;;5.12;75.87;93305.84;4866696;28;20048;-87
2021/03/10 01:56:28;;;;;;;73.60;44.67;;;;;;;5.01;76.84;93304.31;4927995;28;20050;-87
2021/03/10 01:58:59;;;;;;;72.47;43.67;;;;;;;5.23;76.94;93333.56;4905994;28;20050;-87
2021/03/10 02:01:27;;;;;;;74.60;45.60;;;;;;;5.00;76.56;93298.28;4922662;28;20114;-87
2021/03/10 02:03:52;;;;;;;68.65;43.15;;;;;;;5.11;76.92;93312.13;4958211;28;20035;-87
2021/03/10 02:06:56;;;;;;;74.60;45.03;;;;;;;5.49;77.18;93363.88;4954219;28;20395;-84
2021/03/10 02:10:00;;;;;;;71.28;45.17;;;;;;;5.16;77.24;93317.34;4956393;28;20034;-87
2021/03/10 02:12:51;;;;;;;74.43;47.13;;;;;;;5.52;77.45;93354.72;4947704;28;20039;-86
2021/03/10 02:15:52;;;;;;;77.72;46.22;;;;;;;5.17;77.54;93334.66;4850074;28;20055;-89
2021/03/10 02:19:06;;;;;;;;;;;;;;;;;;;;;
2021/03/10 02:22:01;;;;;;;79.88;47.00;;;;;;;5.09;78.54;93340.41;4928832;28;20051;-86
2021/03/10 02:24:48;;;;;;;81.00;43.90;;;;;;;5.08;79.06;93351.97;4909826;28;20478;-89
2021/03/10 02:30:35;;;;;;;82.25;49.83;;;;;;;4.99;79.95;93343.84;4956409;28;20054;-92
2021/03/10 02:33:50;;;;;;;81.53;46.13;;;;;;;4.82;80.23;93342.56;4896841;28;20059;-94
2021/03/10 02:36:16;;;;;;;87.05;50.08;;;;;;;4.86;81.33;93339.16;4889086;28;20044;-87
2021/03/10 02:38:56;;;;;;;86.43;49.70;;;;;;;4.54;81.28;93299.41;4914402;28;20075;-89
2021/03/10 02:42:03;;;;;;;90.72;51.22;;;;;;;4.86;80.99;93340.97;4950887;28;20039;-93
2021/03/10 02:44:53;;;;;;;82.55;48.08;;;;;;;4.54;81.37;93308.06;4988106;23;20055;-96
2021/03/10 02:47:52;;;;;;;79.07;45.45;;;;;;;4.59;81.46;93294.19;4863968;28;20398;-94
2021/03/10 02:50:29;;;;;;;82.20;45.85;;;;;;;4.19;81.62;93240.06;4886263;28;20134;-90
2021/03/10 02:56:27;;;;;;;81.55;45.67;;;;;;;4.74;81.18;93322.94;4914709;28;20099;-94
2021/03/10 02:58:53;;;;;;;75.03;42.83;;;;;;;4.26;81.27;93246.56;4906893;28;20086;-89
2021/03/10 03:01:55;;;;;;;79.72;43.22;;;;;;;4.85;81.60;93315.84;4927749;28;20110;-93
2021/03/10 03:04:33;;;;;;;81.55;45.38;;;;;;;4.60;81.62;93301.75;4774320;29;20045;-90
2021/03/10 03:07:12;;;;;;;80.15;46.70;;;;;;;4.61;81.68;93282.38;4839911;29;20065;-91
2021/03/10 03:10:45;;;;;;;68.53;40.15;;;;;;;4.65;80.75;93272.94;4845003;29;20062;-91
2021/03/10 03:20:29;;;;;;;77.63;43.25;;;;;;;4.46;81.47;93271.94;4777411;23;20259;-89
2021/03/10 03:23:41;;;;;;;71.10;41.63;;;;;;;4.35;81.18;93244.22;4891163;28;20121;-93
2021/03/10 03:29:08;;;;;;;76.22;43.97;;;;;;;4.43;81.89;93272.47;5073429;23;20063;-88
2021/03/10 03:31:53;;;;;;;80.68;44.45;;;;;;;4.32;82.11;93250.75;4884799;28;20057;-87
2021/03/10 03:35:17;;;;;;;77.20;43.35;;;;;;;4.54;81.85;93276.66;4914440;28;20109;-91
2021/03/10 03:41:19;;;;;;;86.50;45.72;;;;;;;4.96;81.58;93317.41;4824962;29;20218;-89
2021/03/10 03:44:06;;;;;;;79.80;45.25;;;;;;;4.86;81.44;93291.25;4776940;29;20198;-89
2021/03/10 03:47:05;;;;;;;73.53;43.92;;;;;;;5.05;81.39;93308.75;4834839;29;20068;-88
2021/03/10 03:49:30;;;;;;;71.78;41.03;;;;;;;4.96;81.16;93293.84;4866987;29;21039;-88
2021/03/10 03:52:31;;;;;;;76.05;40.90;;;;;;;4.60;80.84;93246.78;4887435;29;20134;-89
2021/03/10 03:55:18;;;;;;;73.85;39.90;;;;;;;5.20;80.50;93313.94;4792493;29;20046;-88
2021/03/10 04:00:48;;;;;;;53.22;33.42;;;;;;;5.09;79.77;93314.22;4922344;28;20065;-91
2021/03/10 04:03:17;;;;;;;56.72;32.58;;;;;;;4.57;79.92;93236.88;4901920;29;20079;-89
2021/03/10 04:05:45;;;;;;;58.88;35.42;;;;;;;5.05;80.35;93315.81;4895728;29;20938;-90
2021/03/10 04:08:28;;;;;;;54.33;34.50;;;;;;;4.90;80.43;93314.00;4899150;28;20035;-89
2021/03/10 04:11:26;;;;;;;62.38;35.88;;;;;;;4.89;80.87;93311.69;4859145;28;20023;-90
2021/03/10 04:14:03;;;;;;;51.55;32.50;;;;;;;4.94;80.83;93315.03;4853910;29;20035;-89
2021/03/10 04:17:04;;;;;;;57.40;34.88;;;;;;;4.67;80.63;93262.22;4863163;29;20040;-90
2021/03/10 04:19:38;;;;;;;57.55;34.92;;;;;;;4.51;80.76;93224.84;4929626;28;20090;-88
2021/03/10 04:22:30;;;;;;;57.15;34.88;;;;;;;5.07;80.69;93298.00;4862912;28;20364;-89
2021/03/10 04:25:06;;;;;;;56.65;31.63;;;;;;;4.75;80.54;93249.38;4925578;29;20046;-89
2021/03/10 04:27:58;;;;;;;58.33;33.35;;;;;;;4.67;80.20;93210.69;4902686;28;20047;-89
2021/03/10 04:30:32;;;;;;;50.90;31.85;;;;;;;4.88;79.48;93236.78;4856712;28;20051;-89
2021/03/10 04:33:08;;;;;;;55.25;32.08;;;;;;;5.04;79.80;93246.94;4931394;28;20046;-88
2021/03/10 04:35:36;;;;;;;47.78;29.23;;;;;;;4.92;79.54;93219.50;4929845;28;20051;-89
2021/03/10 04:38:45;;;;;;;45.45;27.33;;;;;;;5.41;78.73;93288.47;4915824;28;20030;-88
2021/03/10 04:41:10;;;;;;;53.53;29.73;;;;;;;5.04;78.93;93214.72;4890015;28;20044;-88
2021/03/10 04:46:49;;;;;;;47.60;28.98;;;;;;;4.80;78.39;93215.34;4925394;28;20094;-89
2021/03/10 04:49:27;;;;;;;;;;;;;;;;;;;;;
2021/03/10 04:52:16;;;;;;;49.08;29.42;;;;;;;5.48;77.59;93264.56;4865309;28;20138;-88
2021/03/10 04:54:50;;;;;;;45.60;27.58;;;;;;;5.61;76.98;93277.88;4902624;28;20043;-89
2021/03/10 04:57:18;;;;;;;48.13;29.88;;;;;;;5.03;77.68;93223.66;4919928;28;20709;-88
2021/03/10 04:59:56;;;;;;;50.90;30.50;;;;;;;5.08;77.71;93210.53;4862752;28;20055;-88
2021/03/10 05:02:22;;;;;;;48.75;29.02;;;;;;;5.13;77.65;93208.66;4919226;28;20038;-89
2021/03/10 05:05:12;;;;;;;;;;;;;;;;;;;;;
2021/03/10 05:07:47;;;;;;;46.85;30.08;;;;;;;5.57;76.76;93249.88;4932199;28;20461;-90
2021/03/10 05:10:13;;;;;;;43.47;27.25;;;;;;;5.35;77.11;93237.13;4831620;28;20071;-89
2021/03/10 05:12:45;;;;;;;37.85;24.67;;;;;;;5.13;76.90;93213.13;4889820;28;20517;-90
2021/03/10 05:15:19;;;;;;;42.60;26.20;;;;;;;5.23;77.50;93244.50;4876703;28;20043;-89
2021/03/10 05:18:26;;;;;;;48.30;28.63;;;;;;;4.95;78.43;93239.91;4951849;28;20133;-92
2021/03/10 05:20:57;;;;;;;54.22;32.30;;;;;;;5.07;79.76;93269.19;4938023;28;20125;-90
2021/03/10 05:23:41;;;;;;;56.10;31.75;;;;;;;4.95;79.41;93245.91;4883390;28;20100;-89
2021/03/10 05:26:34;;;;;;;53.95;31.35;;;;;;;4.74;79.72;93211.16;4889491;29;20063;-89
2021/03/10 05:29:00;;;;;;;57.13;30.70;;;;;;;4.88;79.84;93239.41;4907348;28;20134;-90
2021/03/10 05:31:26;;;;;;;54.55;28.88;;;;;;;4.97;79.29;93230.75;4957725;28;20485;-91
2021/03/10 05:33:51;;;;;;;62.97;34.67;;;;;;;5.05;79.78;93252.97;4943828;28;20042;-90
2021/03/10 05:42:33;;;;;;;52.08;31.63;;;;;;;4.97;80.16;93235.19;4888338;28;20103;-89
2021/03/10 05:48:25;;;;;;;62.05;31.30;;;;;;;4.87;79.54;93225.53;4912585;29;20099;-91
2021/03/10 05:54:12;;;;;;;41.25;25.08;;;;;;;4.67;78.88;93194.19;5015931;23;20033;-92
2021/03/10 05:59:58;;;;;;;45.22;27.13;;;;;;;4.63;79.93;93225.34;4995233;23;20650;-92
2021/03/10 06:02:27;;;;;;;47.55;24.65;;;;;;;4.98;80.45;93268.19;4940635;28;20074;-90
2021/03/10 06:04:53;;;;;;;41.75;24.58;;;;;;;4.72;80.41;93228.97;4941622;28;20022;-89
2021/03/10 06:07:52;;;;;;;49.05;25.63;;;;;;;4.78;79.92;93220.06;4973973;23;20085;-90
2021/03/10 06:11:07;;;;;;;39.35;22.48;;;;;;;4.92;80.03;93277.09;4948225;28;20046;-92
2021/03/10 06:17:05;;;;;;;46.90;25.42;;;;;;;4.87;80.56;93271.88;4856334;28;20094;-91
2021/03/10 06:19:59;;;;;;;43.63;25.75;;;;;;;4.36;80.82;93209.16;4966123;23;20047;-91
2021/03/10 06:22:56;;;;;;;50.72;28.02;;;;;;;4.85;80.70;93269.50;4860203;29;20495;-91
2021/03/10 06:25:53;;;;;;;47.40;27.15;;;;;;;4.53;80.78;93219.34;4889618;23;20063;-92
2021/03/10 06:37:59;;;;;;;55.42;31.52;;;;;;;4.68;82.08;93275.06;4952528;28;20103;-91
2021/03/10 06:40:36;;;;;;;55.40;32.28;;;;;;;4.77;82.53;93273.47;4937785;28;20134;-90
2021/03/10 06:43:45;;;;;;;60.88;33.30;;;;;;;4.38;82.10;93195.81;5019201;23;20037;-90
2021/03/10 06:49:51;;;;;;;50.92;28.50;;;;;;;4.95;81.59;93272.09;4930910;23;20180;-93
2021/03/10 06:52:40;;;;;;;;;;;;;;;;;;;;;
2021/03/10 06:55:49;;;;;;;55.75;30.60;;;;;;;4.65;81.82;93241.56;5255309;23;20050;-91
2021/03/10 07:02:20;;;;;;;64.93;31.50;;;;;;;4.71;83.02;93285.00;5145311;23;20028;-89
2021/03/10 07:16:39;;;;;;;;;;;;;;;;;;;;;
2021/03/10 07:38:18;;;;;;;77.03;39.22;;;;;;;4.85;83.21;93300.94;4926032;29;20066;-90
2021/03/10 07:55:08;;;;;;;105.53;53.03;;;;;;;4.28;84.38;93257.56;5003668;23;20122;-89
2021/03/10 08:01:48;;;;;;;91.43;43.58;;;;;;;4.55;83.67;93304.38;4763121;23;20137;31
2021/03/10 11:06:31;;;;;;;;;;;;;;;6.34;77.69;93291.09;5968543;23;20028;31
2021/03/10 11:08:57;;;;;;;46.25;29.98;;;;;;;5.85;77.79;93256.25;4985010;23;20050;-85
2021/03/10 11:11:28;;;;;;;51.35;32.53;;;;;;;5.99;78.14;93294.75;4859809;29;20058;-86
2021/03/10 12:24:24;;;;;;;59.95;42.72;;;;;;;6.45;71.52;93270.81;4513741;27;20054;-88
2021/03/10 12:30:52;;;;;;;;;;;;;;;;;;;;;
2021/03/10 13:39:08;;;;;;;;;;;;;;;;;;;;;
2021/03/10 13:41:27;;;;;;;26.67;20.15;;;;;;;5.43;72.30;93275.84;4818222;29;20069;-86
2021/03/10 13:44:18;;;;;;;61.15;20.02;;;;;;;5.45;71.48;93293.94;4783329;29;20160;-86
2021/03/10 13:47:17;;;;;;;;;;;;;;;;;;;;;
2021/03/10 13:50:09;;;;;;;22.42;17.92;;;;;;;5.45;71.30;93292.09;4819281;29;20453;-86
2021/03/10 13:53:40;;;;;;;17.90;14.77;;;;;;;6.04;69.84;93360.28;4831360;29;20519;-88
2021/03/10 13:56:49;;;;;;;18.90;14.80;;;;;;;5.94;70.80;93370.03;4767777;29;20146;-89
2021/03/10 14:27:18;;;;;;;12.25;10.40;;;;;;;5.02;72.48;93382.59;4855871;29;20115;-86
2021/03/10 14:29:56;;;;;;;14.68;11.60;;;;;;;4.65;73.15;93348.84;4803606;29;20057;-83
2021/03/10 14:32:26;;;;;;;14.80;11.98;;;;;;;4.48;73.28;93322.19;4864682;29;20044;-84
2021/03/10 14:36:11;;;;;;;;;;;;;;;;;;;;;
2021/03/10 14:38:31;;;;;;;16.98;12.40;;;;;;;4.26;75.37;93329.47;4745745;29;20056;-86
2021/03/10 14:41:02;;;;;;;16.60;12.95;;;;;;;4.04;76.07;93323.72;4806078;29;20407;-85
2021/03/10 14:43:34;;;;;;;12.35;11.05;;;;;;;4.07;76.07;93331.03;4837241;29;20099;-85
2021/03/10 14:46:00;;;;;;;13.73;11.40;;;;;;;4.09;76.13;93342.81;4883706;29;20123;-85
2021/03/10 14:48:29;;;;;;;17.75;12.15;;;;;;;4.18;76.52;93361.38;4872725;29;21474;-88
2021/03/10 14:50:57;;;;;;;20.70;15.10;;;;;;;4.30;77.03;93352.22;4865720;29;20172;-89
2021/03/10 14:53:24;;;;;;;22.92;15.25;;;;;;;4.47;75.82;93374.75;4880863;29;20119;-88
2021/03/10 14:55:49;;;;;;;97.03;47.80;;;;;;;4.50;76.00;93372.41;4919163;29;20542;-87
2021/03/10 14:58:18;;;;;;;32.33;18.67;;;;;;;4.28;75.83;93361.41;4920579;29;20039;-87
2021/03/10 15:00:43;;;;;;;20.25;14.10;;;;;;;4.06;75.94;93356.38;4874492;29;20053;-87
2021/03/10 15:03:10;;;;;;;25.80;13.93;;;;;;;4.17;77.08;93381.50;4897105;29;20076;-86
2021/03/10 15:05:36;;;;;;;170.70;70.80;;;;;;;4.01;77.37;93364.22;4886789;29;20732;-87
2021/03/10 15:08:05;;;;;;;118.75;51.30;;;;;;;4.06;77.57;93366.06;4898734;29;20392;-88
2021/03/10 15:10:38;;;;;;;27.75;18.73;;;;;;;4.20;76.56;93341.00;4920771;29;20486;-90
2021/03/10 15:13:04;;;;;;;23.02;17.42;;;;;;;4.51;76.64;93383.66;4865664;29;20070;-87
2021/03/10 15:15:29;;;;;;;23.70;17.73;;;;;;;4.64;76.53;93391.75;4907693;29;20036;-87
2021/03/10 15:17:55;;;;;;;32.78;19.48;;;;;;;5.00;76.71;93415.31;4915585;29;20110;-88
2021/03/10 15:20:23;;;;;;;21.25;14.30;;;;;;;4.73;75.56;93345.72;4916005;29;20158;-90
2021/03/10 15:22:52;;;;;;;17.92;14.73;;;;;;;5.13;74.75;93396.47;4902501;29;20032;-88
2021/03/10 15:25:18;;;;;;;18.58;14.65;;;;;;;5.16;74.42;93416.88;4930042;28;20031;-85
2021/03/10 15:27:46;;;;;;;19.98;16.15;;;;;;;5.16;74.21;93416.88;4920078;28;20494;-84
2021/03/10 15:30:14;;;;;;;15.82;13.27;;;;;;;4.83;73.79;93365.09;4922113;28;20137;-85
2021/03/10 15:32:40;;;;;;;17.90;14.45;;;;;;;4.88;73.56;93381.56;4931381;28;20106;-84
2021/03/10 15:35:07;;;;;;;17.23;13.13;;;;;;;5.11;73.53;93424.75;4918969;28;20123;-84
2021/03/10 15:37:35;;;;;;;23.70;14.77;;;;;;;5.09;73.71;93421.59;4904331;29;20110;-82
2021/03/10 15:40:06;;;;;;;23.05;16.60;;;;;;;5.03;73.96;93417.44;4930343;28;20426;-82
2021/03/10 15:42:32;;;;;;;15.50;11.77;;;;;;;5.03;73.20;93414.81;4908957;28;20101;-83
2021/03/10 15:44:57;;;;;;;14.43;10.98;;;;;;;5.18;72.74;93436.53;4929680;28;20043;-83
2021/03/10 15:47:25;;;;;;;12.50;8.75;;;;;;;4.84;71.94;93401.44;4912395;29;20044;-84
2021/03/10 15:49:51;;;;;;;14.65;11.07;;;;;;;4.98;72.73;93433.94;4895689;29;20023;-82
2021/03/10 15:52:17;;;;;;;12.57;10.52;;;;;;;4.88;73.51;93425.28;4934541;28;20031;-84
2021/03/10 15:54:42;;;;;;;78.18;14.65;;;;;;;4.96;73.28;93441.25;4934964;28;20803;-82
2021/03/10 15:57:12;;;;;;;120.63;18.38;;;;;;;4.84;74.41;93427.63;4928371;28;20122;-81
2021/03/10 15:59:37;;;;;;;100.05;16.95;;;;;;;4.95;75.69;93439.69;4919295;28;20566;-82
2021/03/10 16:02:03;;;;;;;17.90;9.50;;;;;;;4.94;74.92;93448.56;4928785;28;20093;-83
2021/03/10 16:04:28;;;;;;;10.95;9.43;;;;;;;4.78;74.95;93420.84;4930560;28;20800;-87
2021/03/10 16:06:53;;;;;;;51.33;15.90;;;;;;;4.93;74.65;93438.38;4931500;28;20270;-83
2021/03/10 16:09:19;;;;;;;11.30;10.10;;;;;;;5.03;74.73;93448.88;4933230;28;20126;-85
2021/03/10 16:11:44;;;;;;;9.80;7.80;;;;;;;4.89;72.72;93429.50;4930773;28;20108;-86
2021/03/10 16:14:10;;;;;;;13.27;9.75;;;;;;;4.96;73.43;93456.19;4923054;28;20497;-85
2021/03/10 16:16:38;;;;;;;41.53;11.25;;;;;;;4.84;71.90;93440.72;4937226;28;20027;-84
2021/03/10 16:19:04;;;;;;;8.88;7.80;;;;;;;4.60;72.29;93422.13;4916989;29;20389;-84
2021/03/10 16:21:29;;;;;;;9.57;8.43;;;;;;;4.55;72.66;93426.56;4919810;28;20047;-84
2021/03/10 16:23:57;;;;;;;12.80;9.50;;;;;;;4.72;72.39;93463.75;4904002;29;20043;-85
2021/03/10 16:26:22;;;;;;;7.25;6.45;;;;;;;4.75;71.68;93479.72;4919271;28;20122;-87
2021/03/10 16:28:57;;;;;;;8.63;7.53;;;;;;;4.66;72.63;93480.50;4918549;28;20030;-86
2021/03/10 16:31:37;;;;;;;9.88;7.90;;;;;;;4.45;73.21;93490.13;4932196;28;20035;-90
2021/03/10 16:34:03;;;;;;;11.77;9.45;;;;;;;4.03;73.29;93426.72;4900615;28;20058;-87
2021/03/10 16:36:28;;;;;;;13.10;9.35;;;;;;;4.15;73.51;93442.97;4875831;29;20044;-85
2021/03/10 16:38:57;;;;;;;18.42;9.77;;;;;;;4.53;74.10;93501.94;4832884;28;20339;-88
2021/03/10 16:41:35;;;;;;;;;;;;;;;;;;;;;
2021/03/10 16:44:12;;;;;;;7.55;6.57;;;;;;;4.21;73.62;93462.84;4836346;28;20040;-87
2021/03/10 16:46:41;;;;;;;8.60;7.47;;;;;;;4.17;72.57;93457.34;4864643;29;20019;-87
2021/03/10 16:49:12;;;;;;;27.77;19.30;;;;;;;4.28;72.18;93502.63;4904564;23;20063;-89
2021/03/10 16:51:57;;;;;;;32.38;23.77;;;;;;;4.07;72.91;93493.94;4854895;29;20055;-92
2021/03/10 16:54:32;;;;;;;28.73;21.08;;;;;;;3.95;72.56;93487.34;4869678;29;20047;-88
2021/03/10 16:57:10;;;;;;;;;;;;;;;4.18;72.82;93526.13;4832120;29;20060;-86
2021/03/10 16:59:56;;;;;;;42.70;28.17;;;;;;;3.83;73.16;93472.66;4896300;29;19927;-87
2021/03/10 17:02:57;;;;;;;19.55;13.93;;;;;;;4.13;72.87;93529.53;4841311;29;20062;-88
2021/03/10 17:05:37;;;;;;;15.88;12.10;;;;;;;4.16;73.24;93538.66;4817759;29;20054;-88
2021/03/10 17:08:09;;;;;;;17.63;15.15;;;;;;;3.98;73.81;93520.81;4802578;29;20038;-86
2021/03/10 17:20:55;;;;;;;;;;;;;;;4.29;74.04;93543.47;5192745;23;20023;-86
2021/03/10 17:23:21;;;;;;;9.07;7.22;;;;;;;4.00;74.25;93508.28;4852700;29;20366;-87
2021/03/10 17:28:52;;;;;;;9.80;8.02;;;;;;;4.32;73.74;93554.19;4871823;29;20048;-87
2021/03/10 17:31:17;;;;;;;13.60;8.80;;;;;;;4.14;73.52;93536.34;4894422;29;20033;-87
2021/03/10 17:33:45;;;;;;;12.32;8.90;;;;;;;4.31;74.28;93564.91;4871443;29;20067;-87
2021/03/10 17:36:14;;;;;;;8.43;6.80;;;;;;;4.40;73.44;93571.22;4856484;29;20605;-86
2021/03/10 17:38:51;;;;;;;8.30;6.55;;;;;;;4.23;72.87;93547.88;4874853;29;20129;-87
2021/03/10 17:41:17;;;;;;;10.82;8.98;;;;;;;4.35;74.71;93585.06;4858388;29;20052;-85
2021/03/10 17:43:42;;;;;;;12.63;6.95;;;;;;;4.22;72.35;93555.97;4875895;29;20032;-85
2021/03/10 17:46:12;;;;;;;7.50;6.75;;;;;;;3.99;72.79;93538.09;4870718;29;20139;-85
2021/03/10 17:48:38;;;;;;;9.15;8.15;;;;;;;3.79;72.60;93517.84;4868918;29;20048;-85
2021/03/10 17:51:07;;;;;;;9.93;8.57;;;;;;;4.12;72.90;93558.53;4819676;29;20433;-86
2021/03/10 17:53:32;;;;;;;9.20;6.80;;;;;;;4.16;72.59;93552.53;4839569;29;20107;-86
2021/03/10 17:55:57;;;;;;;12.32;7.45;;;;;;;4.03;73.33;93531.31;4857121;29;21389;-86
2021/03/10 17:58:23;;;;;;;9.00;8.00;;;;;;;4.39;73.68;93568.88;4899739;29;20865;-85
2021/03/10 18:00:48;;;;;;;7.43;6.55;;;;;;;4.34;72.85;93561.78;4864158;29;21521;-86
2021/03/10 18:03:14;;;;;;;6.72;5.57;;;;;;;4.38;71.32;93575.94;4891872;29;20135;-85
2021/03/10 18:05:42;;;;;;;9.18;7.22;;;;;;;4.12;71.39;93529.75;4896037;29;20514;-86
2021/03/10 18:08:11;;;;;;;11.02;9.23;;;;;;;3.82;73.56;93518.13;4894459;29;20131;-84
2021/03/10 18:10:36;;;;;;;139.55;22.17;;;;;;;3.98;74.26;93541.72;4893900;29;20063;-84
2021/03/10 18:13:02;;;;;;;50.38;10.82;;;;;;;3.90;74.44;93515.03;4892019;29;20046;-84
2021/03/10 18:15:27;;;;;;;18.17;9.35;;;;;;;4.22;74.56;93558.59;4897624;29;20582;-84
2021/03/10 18:17:53;;;;;;;10.68;7.55;;;;;;;4.17;73.41;93554.13;4903705;29;20510;-85
2021/03/10 18:20:26;;;;;;;9.27;7.43;;;;;;;4.33;72.45;93575.91;4899197;29;20439;-84
2021/03/10 18:22:55;;;;;;;100.50;17.77;;;;;;;3.90;73.44;93522.09;4865664;29;20062;-84
2021/03/10 18:25:23;;;;;;;11.13;8.07;;;;;;;4.06;72.20;93528.94;4876386;29;20042;-84
2021/03/10 18:27:48;;;;;;;20.08;10.02;;;;;;;4.02;71.56;93529.72;4887369;29;20404;-85
2021/03/10 18:30:15;;;;;;;10.65;8.18;;;;;;;3.95;70.98;93523.94;4886618;29;20076;-84
2021/03/10 18:32:41;;;;;;;13.35;9.35;;;;;;;4.09;71.48;93565.06;4896779;29;20880;-85
2021/03/10 18:35:08;;;;;;;12.88;9.32;;;;;;;4.25;71.49;93589.47;4899951;29;20080;-84
2021/03/10 18:37:34;;;;;;;11.10;9.10;;;;;;;4.24;72.27;93588.69;4885734;29;20036;-85
2021/03/10 18:39:59;;;;;;;8.65;6.60;;;;;;;4.23;71.59;93581.09;4898084;29;20056;-85
2021/03/10 18:42:25;;;;;;;15.68;10.38;;;;;;;4.15;71.96;93589.44;4876266;29;20062;-85
2021/03/10 18:44:51;;;;;;;9.45;7.45;;;;;;;4.10;71.29;93579.72;4900356;29;20611;-84
2021/03/10 18:47:19;;;;;;;8.90;6.75;;;;;;;4.00;72.01;93568.41;4890324;29;20486;-84
2021/03/10 18:49:44;;;;;;;9.73;7.72;;;;;;;4.07;71.17;93587.28;4880426;29;20028;-85
2021/03/10 18:52:10;;;;;;;36.40;10.15;;;;;;;3.81;70.48;93536.69;4863032;29;20104;-85
2021/03/10 18:54:38;;;;;;;114.60;35.50;;;;;;;3.90;72.00;93556.88;4886044;29;20056;-85
2021/03/10 18:57:04;;;;;;;130.43;60.40;;;;;;;3.88;71.45;93569.41;4893206;29;20146;-84
2021/03/10 18:59:33;;;;;;;206.10;95.95;;;;;;;3.66;72.01;93532.16;4872435;29;20045;-85
2021/03/10 19:01:59;;;;;;;248.02;103.53;;;;;;;3.93;72.53;93584.31;4898012;29;20030;-85
2021/03/10 19:04:27;;;;;;;82.78;37.78;;;;;;;4.00;73.84;93576.25;4903068;29;20021;-85
2021/03/10 19:06:52;;;;;;;32.53;13.68;;;;;;;4.06;73.71;93576.03;4874644;29;20507;-85
2021/03/10 19:09:18;;;;;;;131.15;30.80;;;;;;;3.83;73.30;93561.53;4898140;29;20103;-86
2021/03/10 19:11:43;;;;;;;9.95;8.95;;;;;;;4.12;72.47;93582.84;4842107;29;20691;-85
2021/03/10 19:14:09;;;;;;;136.40;17.23;;;;;;;3.90;72.34;93550.84;4872199;29;20048;-85
2021/03/10 19:16:35;;;;;;;59.92;12.48;;;;;;;3.87;72.30;93557.34;4899214;29;20527;-85
2021/03/10 19:19:00;;;;;;;9.45;7.60;;;;;;;3.69;72.59;93528.25;4896973;29;20596;-86
2021/03/10 19:21:26;;;;;;;189.25;19.80;;;;;;;3.88;72.43;93558.94;4874116;29;20570;-85
2021/03/10 19:23:54;;;;;;;8.95;7.38;;;;;;;3.82;73.30;93575.63;4881786;29;20121;-86
2021/03/10 19:26:24;;;;;;;29.02;10.82;;;;;;;3.89;73.13;93580.63;4849597;29;20574;-86
2021/03/10 19:28:50;;;;;;;14.18;11.20;;;;;;;3.98;72.34;93589.59;4856461;29;20076;-86
2021/03/10 19:31:16;;;;;;;18.48;13.48;;;;;;;4.08;71.98;93607.16;4899815;29;20137;-86
2021/03/10 19:33:41;;;;;;;17.30;11.70;;;;;;;4.10;72.04;93620.78;4861416;29;20041;-86
2021/03/10 19:36:18;;;;;;;14.10;11.00;;;;;;;3.88;71.31;93592.91;4861895;29;20045;-86
2021/03/10 19:38:44;;;;;;;14.38;10.48;;;;;;;3.83;71.00;93584.25;4866252;29;20047;-85
2021/03/10 19:41:12;;;;;;;10.65;9.20;;;;;;;3.71;70.31;93584.47;4877311;29;20471;-88
2021/03/10 19:43:48;;;;;;;13.20;11.90;;;;;;;3.39;70.71;93560.16;4899962;29;20193;-85
2021/03/10 19:46:14;;;;;;;11.88;10.70;;;;;;;3.54;70.68;93594.25;4833930;29;20040;-85
2021/03/10 19:48:39;;;;;;;14.70;12.40;;;;;;;3.67;70.80;93624.38;4896446;29;20044;-87
2021/03/10 19:51:05;;;;;;;14.30;11.20;;;;;;;3.27;71.65;93567.41;4887825;29;20101;-86
2021/03/10 19:53:38;;;;;;;15.68;12.85;;;;;;;3.68;71.69;93634.59;4846734;29;20053;-85
2021/03/10 19:56:07;;;;;;;10.57;8.98;;;;;;;3.32;71.10;93570.81;4843040;29;20072;-86
2021/03/10 19:58:36;;;;;;;11.27;8.65;;;;;;;3.38;71.82;93579.47;4892547;29;20039;-85
2021/03/10 20:01:23;;;;;;;;;;;;;;;;;;;;;
2021/03/10 20:03:53;;;;;;;10.77;8.90;;;;;;;3.23;71.87;93581.97;4822534;29;20056;-84
2021/03/10 20:06:18;;;;;;;9.70;8.73;;;;;;;3.26;71.64;93576.25;4873141;29;20050;-84
2021/03/10 20:08:46;;;;;;;9.63;8.38;;;;;;;3.21;70.82;93565.78;4889292;29;20036;-85
2021/03/10 20:11:21;;;;;;;11.23;8.20;;;;;;;3.33;71.62;93576.81;4830716;29;20049;-85
2021/03/10 20:13:47;;;;;;;60.00;23.75;;;;;;;3.46;71.11;93589.50;4865017;29;20542;-85
2021/03/10 20:16:20;;;;;;;18.27;11.60;;;;;;;3.54;72.34;93609.91;4894379;29;20111;-85
2021/03/10 20:18:53;;;;;;;13.18;9.52;;;;;;;3.69;71.18;93624.94;4850499;29;20053;-84
2021/03/10 20:21:22;;;;;;;10.43;8.85;;;;;;;3.36;70.27;93571.13;4790874;29;20062;-85
2021/03/10 20:23:47;;;;;;;15.48;9.57;;;;;;;3.44;70.49;93594.94;4815069;29;20045;-85
2021/03/10 20:26:17;;;;;;;11.57;8.63;;;;;;;3.45;70.50;93606.19;4870300;29;20416;-85